sensor_id;sensor_type;location;lat;lon;timestamp;temperature;humidity
792;DHT22;379;49.022;12.148;2023-05-02T00:00:59;7.60;99.90
792;DHT22;379;49.022;12.148;2023-05-02T00:03:29;7.50;99.90
792;DHT22;379;49.022;12.148;2023-05-02T00:05:56;7.50;99.90
792;DHT22;379;49.022;12.148;2023-05-02T00:08:24;7.40;99.90
792;DHT22;379;49.022;12.148;2023-05-02T00:10:51;7.40;99.90
792;DHT22;379;49.022;12.148;2023-05-02T00:13:18;7.30;99.90
792;DHT22;379;49.022;12.148;2023-05-02T00:15:44;7.30;99.90
792;DHT22;379;49.022;12.148;2023-05-02T00:18:11;7.20;99.90
792;DHT22;379;49.022;12.148;2023-05-02T00:20:39;7.20;99.90
792;DHT22;379;49.022;12.148;2023-05-02T00:23:06;7.20;99.90
792;DHT22;379;49.022;12.148;2023-05-02T00:25:34;7.30;99.90
792;DHT22;379;49.022;12.148;2023-05-02T00:28:01;7.30;99.90
792;DHT22;379;49.022;12.148;2023-05-02T00:30:27;7.20;99.90
792;DHT22;379;49.022;12.148;2023-05-02T00:32:54;7.10;99.90
792;DHT22;379;49.022;12.148;2023-05-02T00:35:21;7.10;99.90
792;DHT22;379;49.022;12.148;2023-05-02T00:37:48;7.00;99.90
792;DHT22;379;49.022;12.148;2023-05-02T00:40:14;6.90;99.90
792;DHT22;379;49.022;12.148;2023-05-02T00:42:42;6.90;99.90
792;DHT22;379;49.022;12.148;2023-05-02T00:45:09;6.90;99.90
792;DHT22;379;49.022;12.148;2023-05-02T00:47:36;6.90;99.90
792;DHT22;379;49.022;12.148;2023-05-02T00:50:04;6.80;99.90
792;DHT22;379;49.022;12.148;2023-05-02T00:52:32;6.80;99.90
792;DHT22;379;49.022;12.148;2023-05-02T00:54:59;6.70;99.90
792;DHT22;379;49.022;12.148;2023-05-02T00:57:26;6.60;99.90
792;DHT22;379;49.022;12.148;2023-05-02T00:59:55;6.50;99.90
792;DHT22;379;49.022;12.148;2023-05-02T01:02:31;6.50;99.90
792;DHT22;379;49.022;12.148;2023-05-02T01:05:04;6.50;99.90
792;DHT22;379;49.022;12.148;2023-05-02T01:07:52;6.40;99.90
792;DHT22;379;49.022;12.148;2023-05-02T01:10:26;6.40;99.90
792;DHT22;379;49.022;12.148;2023-05-02T01:12:59;6.30;99.90
792;DHT22;379;49.022;12.148;2023-05-02T01:15:30;6.20;99.90
792;DHT22;379;49.022;12.148;2023-05-02T01:17:59;6.30;99.90
792;DHT22;379;49.022;12.148;2023-05-02T01:20:28;6.20;99.90
792;DHT22;379;49.022;12.148;2023-05-02T01:22:59;6.30;99.90
792;DHT22;379;49.022;12.148;2023-05-02T01:25:32;6.40;99.90
792;DHT22;379;49.022;12.148;2023-05-02T01:28:12;6.30;99.90
792;DHT22;379;49.022;12.148;2023-05-02T01:30:43;6.30;99.90
792;DHT22;379;49.022;12.148;2023-05-02T01:33:13;6.30;99.90
792;DHT22;379;49.022;12.148;2023-05-02T01:35:41;6.20;99.90
792;DHT22;379;49.022;12.148;2023-05-02T01:38:13;6.20;99.90
792;DHT22;379;49.022;12.148;2023-05-02T01:40:41;6.10;99.90
792;DHT22;379;49.022;12.148;2023-05-02T01:43:10;6.10;99.90
792;DHT22;379;49.022;12.148;2023-05-02T01:45:38;6.10;99.90
792;DHT22;379;49.022;12.148;2023-05-02T01:48:08;6.10;99.90
792;DHT22;379;49.022;12.148;2023-05-02T01:50:36;6.10;99.90
792;DHT22;379;49.022;12.148;2023-05-02T01:53:07;5.90;99.90
792;DHT22;379;49.022;12.148;2023-05-02T01:55:37;5.90;99.90
792;DHT22;379;49.022;12.148;2023-05-02T01:58:04;5.80;99.90
792;DHT22;379;49.022;12.148;2023-05-02T02:00:32;5.80;99.90
792;DHT22;379;49.022;12.148;2023-05-02T02:03:00;5.70;99.90
792;DHT22;379;49.022;12.148;2023-05-02T02:05:29;5.70;99.90
792;DHT22;379;49.022;12.148;2023-05-02T02:07:56;5.70;99.90
792;DHT22;379;49.022;12.148;2023-05-02T02:10:24;5.70;99.90
792;DHT22;379;49.022;12.148;2023-05-02T02:12:53;5.70;99.90
792;DHT22;379;49.022;12.148;2023-05-02T02:15:26;5.70;99.90
792;DHT22;379;49.022;12.148;2023-05-02T02:17:58;5.70;99.90
792;DHT22;379;49.022;12.148;2023-05-02T02:20:26;5.70;99.90
792;DHT22;379;49.022;12.148;2023-05-02T02:22:55;5.60;99.90
792;DHT22;379;49.022;12.148;2023-05-02T02:25:24;5.50;99.90
792;DHT22;379;49.022;12.148;2023-05-02T02:27:51;5.50;99.90
792;DHT22;379;49.022;12.148;2023-05-02T02:30:18;5.50;99.90
792;DHT22;379;49.022;12.148;2023-05-02T02:32:45;5.40;99.90
792;DHT22;379;49.022;12.148;2023-05-02T02:35:11;5.30;99.90
792;DHT22;379;49.022;12.148;2023-05-02T02:37:42;5.20;99.90
792;DHT22;379;49.022;12.148;2023-05-02T02:40:18;5.20;99.90
792;DHT22;379;49.022;12.148;2023-05-02T02:42:51;5.10;99.90
792;DHT22;379;49.022;12.148;2023-05-02T02:45:32;5.10;99.90
792;DHT22;379;49.022;12.148;2023-05-02T02:48:07;5.10;99.90
792;DHT22;379;49.022;12.148;2023-05-02T02:50:40;5.20;99.90
792;DHT22;379;49.022;12.148;2023-05-02T02:53:14;5.20;99.90
792;DHT22;379;49.022;12.148;2023-05-02T02:55:47;5.20;99.90
792;DHT22;379;49.022;12.148;2023-05-02T03:01:09;5.30;99.90
792;DHT22;379;49.022;12.148;2023-05-02T03:03:38;5.30;99.90
792;DHT22;379;49.022;12.148;2023-05-02T03:06:06;5.30;99.90
792;DHT22;379;49.022;12.148;2023-05-02T03:08:38;5.40;99.90
792;DHT22;379;49.022;12.148;2023-05-02T03:11:06;5.30;99.90
792;DHT22;379;49.022;12.148;2023-05-02T03:13:34;5.30;99.90
792;DHT22;379;49.022;12.148;2023-05-02T03:16:26;5.30;99.90
792;DHT22;379;49.022;12.148;2023-05-02T03:18:54;5.20;99.90
792;DHT22;379;49.022;12.148;2023-05-02T03:21:21;5.20;99.90
792;DHT22;379;49.022;12.148;2023-05-02T03:23:48;5.20;99.90
792;DHT22;379;49.022;12.148;2023-05-02T03:26:16;5.20;99.90
792;DHT22;379;49.022;12.148;2023-05-02T03:28:43;5.30;99.90
792;DHT22;379;49.022;12.148;2023-05-02T03:31:11;5.30;99.90
792;DHT22;379;49.022;12.148;2023-05-02T03:33:38;5.40;99.90
792;DHT22;379;49.022;12.148;2023-05-02T03:36:06;5.40;99.90
792;DHT22;379;49.022;12.148;2023-05-02T03:38:33;5.40;99.90
792;DHT22;379;49.022;12.148;2023-05-02T03:40:59;5.40;99.90
792;DHT22;379;49.022;12.148;2023-05-02T03:43:29;5.40;99.90
792;DHT22;379;49.022;12.148;2023-05-02T03:45:56;5.50;99.90
792;DHT22;379;49.022;12.148;2023-05-02T03:48:23;5.60;99.90
792;DHT22;379;49.022;12.148;2023-05-02T03:50:49;5.70;99.90
792;DHT22;379;49.022;12.148;2023-05-02T03:53:16;5.90;99.90
792;DHT22;379;49.022;12.148;2023-05-02T03:55:43;6.00;99.90
792;DHT22;379;49.022;12.148;2023-05-02T03:58:10;6.10;99.90
792;DHT22;379;49.022;12.148;2023-05-02T04:00:38;6.20;99.90
792;DHT22;379;49.022;12.148;2023-05-02T04:03:05;6.30;99.90
792;DHT22;379;49.022;12.148;2023-05-02T04:05:33;6.40;99.90
792;DHT22;379;49.022;12.148;2023-05-02T04:08:00;6.50;99.90
792;DHT22;379;49.022;12.148;2023-05-02T04:10:27;6.50;99.90
792;DHT22;379;49.022;12.148;2023-05-02T04:12:53;6.60;99.90
792;DHT22;379;49.022;12.148;2023-05-02T04:15:20;6.70;99.90
792;DHT22;379;49.022;12.148;2023-05-02T04:17:48;6.70;99.90
792;DHT22;379;49.022;12.148;2023-05-02T04:20:15;6.80;99.90
792;DHT22;379;49.022;12.148;2023-05-02T04:22:42;6.80;99.90
792;DHT22;379;49.022;12.148;2023-05-02T04:25:08;6.90;99.90
792;DHT22;379;49.022;12.148;2023-05-02T04:27:35;6.90;99.90
792;DHT22;379;49.022;12.148;2023-05-02T04:30:03;6.90;99.90
792;DHT22;379;49.022;12.148;2023-05-02T04:32:30;7.00;99.90
792;DHT22;379;49.022;12.148;2023-05-02T04:34:58;7.10;99.90
792;DHT22;379;49.022;12.148;2023-05-02T04:37:25;7.10;99.90
792;DHT22;379;49.022;12.148;2023-05-02T04:39:52;7.20;99.90
792;DHT22;379;49.022;12.148;2023-05-02T04:42:18;7.20;99.90
792;DHT22;379;49.022;12.148;2023-05-02T04:44:47;7.30;99.90
792;DHT22;379;49.022;12.148;2023-05-02T04:47:13;7.40;99.90
792;DHT22;379;49.022;12.148;2023-05-02T04:49:41;7.50;99.90
792;DHT22;379;49.022;12.148;2023-05-02T04:52:09;7.60;99.90
792;DHT22;379;49.022;12.148;2023-05-02T04:54:36;7.70;99.90
792;DHT22;379;49.022;12.148;2023-05-02T04:57:03;7.70;99.90
792;DHT22;379;49.022;12.148;2023-05-02T04:59:32;7.80;99.90
792;DHT22;379;49.022;12.148;2023-05-02T05:01:59;7.80;99.90
792;DHT22;379;49.022;12.148;2023-05-02T05:04:27;7.90;99.90
792;DHT22;379;49.022;12.148;2023-05-02T05:06:54;7.90;99.90
792;DHT22;379;49.022;12.148;2023-05-02T05:09:22;8.00;99.90
792;DHT22;379;49.022;12.148;2023-05-02T05:11:49;8.00;99.90
792;DHT22;379;49.022;12.148;2023-05-02T05:14:15;8.00;99.90
792;DHT22;379;49.022;12.148;2023-05-02T05:16:42;8.10;99.90
792;DHT22;379;49.022;12.148;2023-05-02T05:19:09;8.10;99.90
792;DHT22;379;49.022;12.148;2023-05-02T05:21:35;8.20;99.90
792;DHT22;379;49.022;12.148;2023-05-02T05:24:02;8.30;99.90
792;DHT22;379;49.022;12.148;2023-05-02T05:26:30;8.40;99.90
792;DHT22;379;49.022;12.148;2023-05-02T05:28:57;8.50;99.90
792;DHT22;379;49.022;12.148;2023-05-02T05:31:24;8.70;99.90
792;DHT22;379;49.022;12.148;2023-05-02T05:33:51;8.80;99.90
792;DHT22;379;49.022;12.148;2023-05-02T05:36:18;9.00;99.90
792;DHT22;379;49.022;12.148;2023-05-02T05:38:44;9.10;99.90
792;DHT22;379;49.022;12.148;2023-05-02T05:41:11;9.30;99.90
792;DHT22;379;49.022;12.148;2023-05-02T05:43:39;9.40;99.90
792;DHT22;379;49.022;12.148;2023-05-02T05:46:06;9.50;99.90
792;DHT22;379;49.022;12.148;2023-05-02T05:48:33;9.60;99.90
792;DHT22;379;49.022;12.148;2023-05-02T05:51:02;9.80;99.90
792;DHT22;379;49.022;12.148;2023-05-02T05:53:29;10.00;99.90
792;DHT22;379;49.022;12.148;2023-05-02T05:55:56;10.30;99.90
792;DHT22;379;49.022;12.148;2023-05-02T05:58:23;10.60;99.90
792;DHT22;379;49.022;12.148;2023-05-02T06:00:51;10.70;99.90
792;DHT22;379;49.022;12.148;2023-05-02T06:03:19;10.90;99.90
792;DHT22;379;49.022;12.148;2023-05-02T06:05:46;11.30;99.90
792;DHT22;379;49.022;12.148;2023-05-02T06:08:12;11.60;99.90
792;DHT22;379;49.022;12.148;2023-05-02T06:10:39;12.00;99.90
792;DHT22;379;49.022;12.148;2023-05-02T06:13:06;12.50;99.90
792;DHT22;379;49.022;12.148;2023-05-02T06:15:32;12.70;99.90
792;DHT22;379;49.022;12.148;2023-05-02T06:18:01;13.20;99.90
792;DHT22;379;49.022;12.148;2023-05-02T06:20:28;13.70;99.90
792;DHT22;379;49.022;12.148;2023-05-02T06:22:54;14.10;99.90
792;DHT22;379;49.022;12.148;2023-05-02T06:25:21;14.20;99.90
792;DHT22;379;49.022;12.148;2023-05-02T06:27:48;14.20;99.90
792;DHT22;379;49.022;12.148;2023-05-02T06:30:15;14.50;99.90
792;DHT22;379;49.022;12.148;2023-05-02T06:32:41;14.70;99.90
792;DHT22;379;49.022;12.148;2023-05-02T06:35:10;14.70;99.90
792;DHT22;379;49.022;12.148;2023-05-02T06:37:37;14.70;99.90
792;DHT22;379;49.022;12.148;2023-05-02T06:40:04;14.70;99.90
792;DHT22;379;49.022;12.148;2023-05-02T06:42:31;14.70;99.90
792;DHT22;379;49.022;12.148;2023-05-02T06:44:58;14.80;99.90
792;DHT22;379;49.022;12.148;2023-05-02T06:47:25;14.90;99.90
792;DHT22;379;49.022;12.148;2023-05-02T06:49:53;15.10;99.90
792;DHT22;379;49.022;12.148;2023-05-02T06:52:21;15.20;99.90
792;DHT22;379;49.022;12.148;2023-05-02T06:54:48;15.10;97.20
792;DHT22;379;49.022;12.148;2023-05-02T06:57:15;15.10;98.50
792;DHT22;379;49.022;12.148;2023-05-02T06:59:41;15.30;98.40
792;DHT22;379;49.022;12.148;2023-05-02T07:02:08;15.60;97.50
792;DHT22;379;49.022;12.148;2023-05-02T07:04:35;15.80;95.80
792;DHT22;379;49.022;12.148;2023-05-02T07:07:02;15.70;93.70
792;DHT22;379;49.022;12.148;2023-05-02T07:09:30;15.90;94.20
792;DHT22;379;49.022;12.148;2023-05-02T07:11:57;16.00;93.50
792;DHT22;379;49.022;12.148;2023-05-02T07:14:25;16.20;92.00
792;DHT22;379;49.022;12.148;2023-05-02T07:16:52;16.20;91.20
792;DHT22;379;49.022;12.148;2023-05-02T07:19:19;16.40;90.70
792;DHT22;379;49.022;12.148;2023-05-02T07:21:46;16.60;89.40
792;DHT22;379;49.022;12.148;2023-05-02T07:24:12;16.70;89.30
792;DHT22;379;49.022;12.148;2023-05-02T07:26:40;17.00;87.20
792;DHT22;379;49.022;12.148;2023-05-02T07:29:07;17.10;85.40
792;DHT22;379;49.022;12.148;2023-05-02T07:31:34;17.20;85.30
792;DHT22;379;49.022;12.148;2023-05-02T07:34:01;17.40;84.10
792;DHT22;379;49.022;12.148;2023-05-02T07:36:27;17.60;83.40
792;DHT22;379;49.022;12.148;2023-05-02T07:38:54;17.90;81.90
792;DHT22;379;49.022;12.148;2023-05-02T07:41:21;18.00;79.80
792;DHT22;379;49.022;12.148;2023-05-02T07:43:49;18.10;77.60
792;DHT22;379;49.022;12.148;2023-05-02T07:46:16;18.10;77.30
792;DHT22;379;49.022;12.148;2023-05-02T07:48:43;18.10;75.30
792;DHT22;379;49.022;12.148;2023-05-02T07:51:10;18.10;74.30
792;DHT22;379;49.022;12.148;2023-05-02T07:53:37;18.30;74.40
792;DHT22;379;49.022;12.148;2023-05-02T07:56:04;18.40;74.20
792;DHT22;379;49.022;12.148;2023-05-02T07:58:31;18.70;73.50
792;DHT22;379;49.022;12.148;2023-05-02T08:00:59;19.00;72.50
792;DHT22;379;49.022;12.148;2023-05-02T08:03:26;19.20;71.20
792;DHT22;379;49.022;12.148;2023-05-02T08:05:53;19.40;69.50
792;DHT22;379;49.022;12.148;2023-05-02T08:08:20;19.60;68.40
792;DHT22;379;49.022;12.148;2023-05-02T08:10:47;19.60;67.60
792;DHT22;379;49.022;12.148;2023-05-02T08:13:15;19.70;67.30
792;DHT22;379;49.022;12.148;2023-05-02T08:15:42;19.60;67.00
792;DHT22;379;49.022;12.148;2023-05-02T08:18:10;19.50;67.00
792;DHT22;379;49.022;12.148;2023-05-02T08:20:37;19.40;63.60
792;DHT22;379;49.022;12.148;2023-05-02T08:23:03;19.20;66.40
792;DHT22;379;49.022;12.148;2023-05-02T08:25:30;19.10;64.60
792;DHT22;379;49.022;12.148;2023-05-02T08:27:57;18.80;65.30
792;DHT22;379;49.022;12.148;2023-05-02T08:30:24;18.90;66.00
792;DHT22;379;49.022;12.148;2023-05-02T08:32:51;19.10;65.40
792;DHT22;379;49.022;12.148;2023-05-02T08:35:19;19.20;65.20
792;DHT22;379;49.022;12.148;2023-05-02T08:37:45;19.30;64.10
792;DHT22;379;49.022;12.148;2023-05-02T08:40:13;19.40;63.70
792;DHT22;379;49.022;12.148;2023-05-02T08:42:41;19.40;63.20
792;DHT22;379;49.022;12.148;2023-05-02T08:45:10;19.60;63.40
792;DHT22;379;49.022;12.148;2023-05-02T08:47:39;19.70;63.00
792;DHT22;379;49.022;12.148;2023-05-02T08:50:08;19.90;64.10
792;DHT22;379;49.022;12.148;2023-05-02T08:52:37;19.90;64.10
792;DHT22;379;49.022;12.148;2023-05-02T08:55:05;19.90;63.00
792;DHT22;379;49.022;12.148;2023-05-02T08:57:32;20.00;63.80
792;DHT22;379;49.022;12.148;2023-05-02T08:59:59;20.20;63.60
792;DHT22;379;49.022;12.148;2023-05-02T09:02:43;20.40;63.30
792;DHT22;379;49.022;12.148;2023-05-02T09:05:18;20.50;62.00
792;DHT22;379;49.022;12.148;2023-05-02T09:07:48;20.50;62.10
792;DHT22;379;49.022;12.148;2023-05-02T09:10:14;20.60;62.20
792;DHT22;379;49.022;12.148;2023-05-02T09:12:41;20.50;59.50
792;DHT22;379;49.022;12.148;2023-05-02T09:15:09;20.20;60.00
792;DHT22;379;49.022;12.148;2023-05-02T09:17:40;20.00;59.00
792;DHT22;379;49.022;12.148;2023-05-02T09:20:09;19.90;61.10
792;DHT22;379;49.022;12.148;2023-05-02T09:22:37;20.10;60.80
792;DHT22;379;49.022;12.148;2023-05-02T09:25:05;19.90;59.20
792;DHT22;379;49.022;12.148;2023-05-02T09:27:52;19.50;60.40
792;DHT22;379;49.022;12.148;2023-05-02T09:30:21;19.20;60.10
792;DHT22;379;49.022;12.148;2023-05-02T09:32:50;18.90;61.20
792;DHT22;379;49.022;12.148;2023-05-02T09:35:18;19.00;62.60
792;DHT22;379;49.022;12.148;2023-05-02T09:37:50;19.30;62.80
792;DHT22;379;49.022;12.148;2023-05-02T09:40:19;19.60;61.50
792;DHT22;379;49.022;12.148;2023-05-02T09:42:46;19.90;60.50
792;DHT22;379;49.022;12.148;2023-05-02T09:45:20;20.30;60.80
792;DHT22;379;49.022;12.148;2023-05-02T09:47:47;20.40;58.20
792;DHT22;379;49.022;12.148;2023-05-02T09:50:32;20.20;58.40
792;DHT22;379;49.022;12.148;2023-05-02T09:53:00;19.90;58.80
792;DHT22;379;49.022;12.148;2023-05-02T09:55:29;19.60;59.30
792;DHT22;379;49.022;12.148;2023-05-02T09:57:56;19.40;59.70
792;DHT22;379;49.022;12.148;2023-05-02T10:00:37;19.20;61.30
792;DHT22;379;49.022;12.148;2023-05-02T10:03:05;19.30;61.40
792;DHT22;379;49.022;12.148;2023-05-02T10:05:35;19.60;61.50
792;DHT22;379;49.022;12.148;2023-05-02T10:08:03;19.80;60.70
792;DHT22;379;49.022;12.148;2023-05-02T10:10:32;19.90;60.70
792;DHT22;379;49.022;12.148;2023-05-02T10:12:59;19.90;59.80
792;DHT22;379;49.022;12.148;2023-05-02T10:15:28;19.40;59.60
792;DHT22;379;49.022;12.148;2023-05-02T10:17:58;18.90;60.30
792;DHT22;379;49.022;12.148;2023-05-02T10:20:29;18.40;61.50
792;DHT22;379;49.022;12.148;2023-05-02T10:22:59;18.20;62.80
792;DHT22;379;49.022;12.148;2023-05-02T10:25:26;18.20;62.80
792;DHT22;379;49.022;12.148;2023-05-02T10:27:55;17.90;63.30
792;DHT22;379;49.022;12.148;2023-05-02T10:30:24;17.80;64.10
792;DHT22;379;49.022;12.148;2023-05-02T10:32:52;17.70;64.60
792;DHT22;379;49.022;12.148;2023-05-02T10:35:19;18.10;65.00
792;DHT22;379;49.022;12.148;2023-05-02T10:37:46;18.70;64.90
792;DHT22;379;49.022;12.148;2023-05-02T10:40:14;19.10;63.50
792;DHT22;379;49.022;12.148;2023-05-02T10:42:42;18.90;62.20
792;DHT22;379;49.022;12.148;2023-05-02T10:45:12;18.70;63.10
792;DHT22;379;49.022;12.148;2023-05-02T10:47:39;18.70;63.50
792;DHT22;379;49.022;12.148;2023-05-02T10:50:06;19.00;64.20
792;DHT22;379;49.022;12.148;2023-05-02T10:52:35;19.00;62.30
792;DHT22;379;49.022;12.148;2023-05-02T10:55:19;18.80;63.30
792;DHT22;379;49.022;12.148;2023-05-02T10:58:21;18.70;62.60
792;DHT22;379;49.022;12.148;2023-05-02T11:00:50;18.90;63.60
792;DHT22;379;49.022;12.148;2023-05-02T11:06:17;19.20;61.90
792;DHT22;379;49.022;12.148;2023-05-02T11:08:43;19.30;62.20
792;DHT22;379;49.022;12.148;2023-05-02T11:11:37;19.40;61.70
792;DHT22;379;49.022;12.148;2023-05-02T11:14:04;19.60;61.70
792;DHT22;379;49.022;12.148;2023-05-02T11:17:05;20.30;60.80
792;DHT22;379;49.022;12.148;2023-05-02T11:22:33;21.20;58.70
792;DHT22;379;49.022;12.148;2023-05-02T11:25:00;21.00;55.90
792;DHT22;379;49.022;12.148;2023-05-02T11:27:36;21.00;56.30
792;DHT22;379;49.022;12.148;2023-05-02T11:30:04;20.80;56.80
792;DHT22;379;49.022;12.148;2023-05-02T11:35:35;20.80;58.10
792;DHT22;379;49.022;12.148;2023-05-02T11:38:03;20.90;57.80
792;DHT22;379;49.022;12.148;2023-05-02T11:40:31;20.70;57.30
792;DHT22;379;49.022;12.148;2023-05-02T11:42:58;20.60;56.90
792;DHT22;379;49.022;12.148;2023-05-02T11:45:32;20.30;56.70
792;DHT22;379;49.022;12.148;2023-05-02T11:48:00;20.30;57.40
792;DHT22;379;49.022;12.148;2023-05-02T11:50:28;20.40;57.80
792;DHT22;379;49.022;12.148;2023-05-02T11:52:56;20.50;57.20
792;DHT22;379;49.022;12.148;2023-05-02T11:55:22;20.30;56.30
792;DHT22;379;49.022;12.148;2023-05-02T11:57:49;20.30;56.60
792;DHT22;379;49.022;12.148;2023-05-02T12:00:16;20.30;56.90
792;DHT22;379;49.022;12.148;2023-05-02T12:02:45;20.50;58.40
792;DHT22;379;49.022;12.148;2023-05-02T12:05:13;20.70;57.50
792;DHT22;379;49.022;12.148;2023-05-02T12:07:41;21.00;57.00
792;DHT22;379;49.022;12.148;2023-05-02T12:10:11;20.90;55.20
792;DHT22;379;49.022;12.148;2023-05-02T12:12:39;20.70;55.70
792;DHT22;379;49.022;12.148;2023-05-02T12:15:07;20.80;55.50
792;DHT22;379;49.022;12.148;2023-05-02T12:17:37;20.60;55.40
792;DHT22;379;49.022;12.148;2023-05-02T12:20:06;20.70;56.70
792;DHT22;379;49.022;12.148;2023-05-02T12:22:33;20.90;56.10
792;DHT22;379;49.022;12.148;2023-05-02T12:25:01;20.80;53.90
792;DHT22;379;49.022;12.148;2023-05-02T12:27:30;20.80;53.90
792;DHT22;379;49.022;12.148;2023-05-02T12:29:58;20.90;54.80
792;DHT22;379;49.022;12.148;2023-05-02T12:32:28;20.80;53.10
792;DHT22;379;49.022;12.148;2023-05-02T12:34:56;20.60;53.40
792;DHT22;379;49.022;12.148;2023-05-02T12:37:24;20.20;53.90
792;DHT22;379;49.022;12.148;2023-05-02T12:39:52;20.20;54.90
792;DHT22;379;49.022;12.148;2023-05-02T12:42:21;20.30;54.60
792;DHT22;379;49.022;12.148;2023-05-02T12:44:50;20.60;54.80
792;DHT22;379;49.022;12.148;2023-05-02T12:47:18;20.90;54.30
792;DHT22;379;49.022;12.148;2023-05-02T12:49:49;21.10;53.90
792;DHT22;379;49.022;12.148;2023-05-02T12:52:16;21.00;53.60
792;DHT22;379;49.022;12.148;2023-05-02T12:54:43;21.20;54.50
792;DHT22;379;49.022;12.148;2023-05-02T12:57:21;21.30;54.00
792;DHT22;379;49.022;12.148;2023-05-02T12:59:51;21.50;54.10
792;DHT22;379;49.022;12.148;2023-05-02T13:02:18;21.50;51.90
792;DHT22;379;49.022;12.148;2023-05-02T13:04:45;21.10;52.20
792;DHT22;379;49.022;12.148;2023-05-02T13:07:12;21.10;53.90
792;DHT22;379;49.022;12.148;2023-05-02T13:09:39;21.00;53.70
792;DHT22;379;49.022;12.148;2023-05-02T13:12:06;20.80;52.30
792;DHT22;379;49.022;12.148;2023-05-02T13:14:32;20.80;52.50
792;DHT22;379;49.022;12.148;2023-05-02T13:17:01;20.90;53.10
792;DHT22;379;49.022;12.148;2023-05-02T13:19:28;21.00;54.30
792;DHT22;379;49.022;12.148;2023-05-02T13:21:55;21.10;55.40
792;DHT22;379;49.022;12.148;2023-05-02T13:24:22;21.30;55.70
792;DHT22;379;49.022;12.148;2023-05-02T13:26:49;21.40;55.40
792;DHT22;379;49.022;12.148;2023-05-02T13:29:15;21.70;55.30
792;DHT22;379;49.022;12.148;2023-05-02T13:31:42;21.80;51.60
792;DHT22;379;49.022;12.148;2023-05-02T13:34:10;21.30;52.00
792;DHT22;379;49.022;12.148;2023-05-02T13:36:37;21.30;52.70
792;DHT22;379;49.022;12.148;2023-05-02T13:39:10;21.40;49.40
792;DHT22;379;49.022;12.148;2023-05-02T13:41:37;21.50;49.00
792;DHT22;379;49.022;12.148;2023-05-02T13:44:03;21.40;48.30
792;DHT22;379;49.022;12.148;2023-05-02T13:46:30;21.40;49.50
792;DHT22;379;49.022;12.148;2023-05-02T13:49:00;21.70;50.60
792;DHT22;379;49.022;12.148;2023-05-02T13:51:29;21.80;51.10
792;DHT22;379;49.022;12.148;2023-05-02T13:53:56;21.70;51.00
792;DHT22;379;49.022;12.148;2023-05-02T13:56:23;21.50;49.10
792;DHT22;379;49.022;12.148;2023-05-02T13:58:50;21.00;49.20
792;DHT22;379;49.022;12.148;2023-05-02T14:01:17;20.70;50.20
792;DHT22;379;49.022;12.148;2023-05-02T14:03:44;20.60;51.10
792;DHT22;379;49.022;12.148;2023-05-02T14:06:10;20.50;51.60
792;DHT22;379;49.022;12.148;2023-05-02T14:08:38;20.70;52.30
792;DHT22;379;49.022;12.148;2023-05-02T14:11:05;20.70;51.10
792;DHT22;379;49.022;12.148;2023-05-02T14:13:32;20.50;50.60
792;DHT22;379;49.022;12.148;2023-05-02T14:15:59;20.40;51.30
792;DHT22;379;49.022;12.148;2023-05-02T14:18:25;20.50;51.60
792;DHT22;379;49.022;12.148;2023-05-02T14:20:52;20.60;50.80
792;DHT22;379;49.022;12.148;2023-05-02T14:23:19;20.70;51.00
792;DHT22;379;49.022;12.148;2023-05-02T14:25:48;20.70;50.90
792;DHT22;379;49.022;12.148;2023-05-02T14:28:14;20.50;51.00
792;DHT22;379;49.022;12.148;2023-05-02T14:30:41;20.40;52.00
792;DHT22;379;49.022;12.148;2023-05-02T14:33:08;20.60;52.20
792;DHT22;379;49.022;12.148;2023-05-02T14:35:35;20.80;51.50
792;DHT22;379;49.022;12.148;2023-05-02T14:38:01;20.80;51.40
792;DHT22;379;49.022;12.148;2023-05-02T14:40:28;20.70;51.00
792;DHT22;379;49.022;12.148;2023-05-02T14:42:57;20.70;51.20
792;DHT22;379;49.022;12.148;2023-05-02T14:45:24;20.70;51.00
792;DHT22;379;49.022;12.148;2023-05-02T14:47:51;20.70;50.80
792;DHT22;379;49.022;12.148;2023-05-02T14:50:18;20.80;50.00
792;DHT22;379;49.022;12.148;2023-05-02T14:52:44;20.90;49.30
792;DHT22;379;49.022;12.148;2023-05-02T14:55:11;20.90;49.60
792;DHT22;379;49.022;12.148;2023-05-02T14:57:38;20.90;49.80
792;DHT22;379;49.022;12.148;2023-05-02T15:00:07;21.10;50.50
792;DHT22;379;49.022;12.148;2023-05-02T15:02:35;21.20;50.50
792;DHT22;379;49.022;12.148;2023-05-02T15:05:01;21.30;49.80
792;DHT22;379;49.022;12.148;2023-05-02T15:07:30;21.30;49.40
792;DHT22;379;49.022;12.148;2023-05-02T15:09:56;21.40;50.10
792;DHT22;379;49.022;12.148;2023-05-02T15:12:23;21.50;50.20
792;DHT22;379;49.022;12.148;2023-05-02T15:14:50;21.50;49.10
792;DHT22;379;49.022;12.148;2023-05-02T15:17:18;21.10;48.30
792;DHT22;379;49.022;12.148;2023-05-02T15:19:45;20.70;49.00
792;DHT22;379;49.022;12.148;2023-05-02T15:22:12;20.40;49.40
792;DHT22;379;49.022;12.148;2023-05-02T15:24:40;20.00;50.10
792;DHT22;379;49.022;12.148;2023-05-02T15:27:07;19.60;50.70
792;DHT22;379;49.022;12.148;2023-05-02T15:29:34;19.30;51.60
792;DHT22;379;49.022;12.148;2023-05-02T15:32:00;18.90;52.70
792;DHT22;379;49.022;12.148;2023-05-02T15:34:28;18.40;54.60
792;DHT22;379;49.022;12.148;2023-05-02T15:36:58;17.60;56.60
792;DHT22;379;49.022;12.148;2023-05-02T15:39:25;16.90;58.30
792;DHT22;379;49.022;12.148;2023-05-02T15:41:52;16.50;59.70
792;DHT22;379;49.022;12.148;2023-05-02T15:44:19;16.10;60.70
792;DHT22;379;49.022;12.148;2023-05-02T15:46:45;15.90;63.40
792;DHT22;379;49.022;12.148;2023-05-02T15:49:12;15.20;67.60
792;DHT22;379;49.022;12.148;2023-05-02T15:51:40;14.20;72.70
792;DHT22;379;49.022;12.148;2023-05-02T15:54:08;13.30;77.80
792;DHT22;379;49.022;12.148;2023-05-02T15:56:34;12.80;81.80
792;DHT22;379;49.022;12.148;2023-05-02T15:59:01;12.50;84.90
792;DHT22;379;49.022;12.148;2023-05-02T16:01:28;12.30;88.60
792;DHT22;379;49.022;12.148;2023-05-02T16:03:54;12.10;90.80
792;DHT22;379;49.022;12.148;2023-05-02T16:06:21;12.00;92.80
792;DHT22;379;49.022;12.148;2023-05-02T16:08:49;11.80;94.60
792;DHT22;379;49.022;12.148;2023-05-02T16:11:16;11.80;96.80
792;DHT22;379;49.022;12.148;2023-05-02T16:13:43;11.80;99.10
792;DHT22;379;49.022;12.148;2023-05-02T16:16:09;11.90;99.90
792;DHT22;379;49.022;12.148;2023-05-02T16:18:36;11.80;99.90
792;DHT22;379;49.022;12.148;2023-05-02T16:21:03;11.80;99.90
792;DHT22;379;49.022;12.148;2023-05-02T16:23:30;11.70;99.90
792;DHT22;379;49.022;12.148;2023-05-02T16:25:59;11.80;99.90
792;DHT22;379;49.022;12.148;2023-05-02T16:28:26;11.70;99.90
792;DHT22;379;49.022;12.148;2023-05-02T16:30:53;11.70;99.90
792;DHT22;379;49.022;12.148;2023-05-02T16:33:20;11.80;99.90
792;DHT22;379;49.022;12.148;2023-05-02T16:35:47;11.70;99.90
792;DHT22;379;49.022;12.148;2023-05-02T16:38:13;11.70;99.90
792;DHT22;379;49.022;12.148;2023-05-02T16:40:40;11.60;99.90
792;DHT22;379;49.022;12.148;2023-05-02T16:43:08;11.50;99.90